Time;durP1;ratioP1;P1;durP2;ratioP2;P2;SDS_P1;SDS_P2;PMS_P1;PMS_P2;Temp;Humidity;BMP_temperature;BMP_pressure;BME280_temperature;BME280_humidity;BME280_pressure;Samples;Min_cycle;Max_cycle;Signal;HPM_P1;HPM_P2
2023/10/27 00:01:42;;;;;;;48.13;24.60;;;12.80;99.90;;;;;;4980250;28;20490;-76
2023/10/27 00:04:08;;;;;;;51.80;24.27;;;12.80;99.90;;;;;;4976384;28;20033;-76
2023/10/27 00:06:34;;;;;;;53.42;22.60;;;12.90;99.90;;;;;;4981424;28;20482;-76
2023/10/27 00:09:00;;;;;;;49.55;22.95;;;12.90;99.90;;;;;;4977998;28;20061;-76
2023/10/27 00:11:27;;;;;;;49.33;23.23;;;12.80;99.90;;;;;;4978143;28;20045;-76
2023/10/27 00:13:53;;;;;;;52.20;24.23;;;12.80;99.90;;;;;;4980269;28;20038;-76
2023/10/27 00:16:19;;;;;;;49.63;24.20;;;12.80;99.90;;;;;;4980368;28;20065;-76
2023/10/27 00:18:45;;;;;;;51.67;22.80;;;12.80;99.90;;;;;;4990674;28;20062;-76
2023/10/27 00:21:10;;;;;;;62.10;23.38;;;12.90;99.90;;;;;;5023645;28;20029;-76
2023/10/27 00:23:36;;;;;;;63.72;25.40;;;12.80;99.90;;;;;;5017663;28;20425;-76
2023/10/27 00:26:02;;;;;;;45.72;21.25;;;12.80;99.90;;;;;;4950195;28;20049;-77
2023/10/27 00:28:29;;;;;;;68.32;25.55;;;12.80;99.90;;;;;;5005440;28;20459;-76
2023/10/27 00:30:55;;;;;;;49.22;21.08;;;12.90;99.90;;;;;;4977525;28;20098;-76
2023/10/27 00:33:21;;;;;;;42.20;19.90;;;12.80;99.90;;;;;;4977609;28;20113;-76
2023/10/27 00:35:51;;;;;;;50.40;21.20;;;12.80;99.90;;;;;;4983349;28;20101;-76
2023/10/27 00:38:17;;;;;;;54.85;22.60;;;12.90;99.90;;;;;;4986300;28;20054;-76
2023/10/27 00:40:44;;;;;;;50.13;22.52;;;12.90;99.90;;;;;;4988019;28;20026;-77
2023/10/27 00:43:15;;;;;;;42.50;20.83;;;12.90;99.90;;;;;;4991057;28;20443;-77
2023/10/27 00:45:42;;;;;;;38.17;19.40;;;12.90;99.90;;;;;;4983982;28;20022;-76
2023/10/27 00:48:08;;;;;;;45.22;20.58;;;13.00;99.90;;;;;;5000206;28;20526;-77
2023/10/27 00:50:34;;;;;;;42.88;20.08;;;12.90;99.90;;;;;;4979041;28;20027;-76
2023/10/27 00:53:00;;;;;;;61.55;22.90;;;12.90;99.90;;;;;;4975256;28;20084;-76
2023/10/27 00:55:26;;;;;;;41.72;20.45;;;12.90;99.90;;;;;;4972980;28;20022;-77
2023/10/27 00:57:54;;;;;;;39.70;19.48;;;12.90;99.90;;;;;;4972387;28;20538;-77
2023/10/27 01:00:20;;;;;;;44.85;21.95;;;12.90;99.90;;;;;;5001840;28;20023;-77
2023/10/27 01:02:46;;;;;;;40.45;18.52;;;12.80;99.90;;;;;;4978558;28;20019;-77
2023/10/27 01:05:12;;;;;;;39.65;18.48;;;12.80;99.90;;;;;;4976400;28;20352;-76
2023/10/27 01:07:39;;;;;;;55.42;20.75;;;12.90;99.90;;;;;;4995850;28;20046;-76
2023/10/27 01:10:05;;;;;;;50.05;19.58;;;12.90;99.90;;;;;;4973037;28;20022;-76
2023/10/27 01:12:31;;;;;;;35.22;17.58;;;12.80;99.90;;;;;;4974257;28;20103;-76
2023/10/27 01:14:57;;;;;;;43.92;17.98;;;12.90;99.90;;;;;;4976034;28;20114;-76
2023/10/27 01:17:23;;;;;;;35.28;15.65;;;12.90;99.90;;;;;;4980772;28;20061;-77
2023/10/27 01:19:48;;;;;;;40.47;18.23;;;12.80;99.90;;;;;;4976233;28;20097;-76
2023/10/27 01:22:15;;;;;;;37.08;17.33;;;12.90;99.90;;;;;;4975505;28;20018;-76
2023/10/27 01:24:41;;;;;;;40.17;17.10;;;12.90;99.90;;;;;;4978525;28;20015;-76
2023/10/27 01:27:07;;;;;;;48.63;18.83;;;12.80;99.90;;;;;;4971294;28;20046;-76
2023/10/27 01:29:34;;;;;;;36.92;14.73;;;12.90;99.90;;;;;;4977027;28;20011;-76
2023/10/27 01:31:59;;;;;;;29.27;15.20;;;12.80;99.90;;;;;;4975917;28;20110;-76
2023/10/27 01:34:25;;;;;;;31.92;14.85;;;12.80;99.90;;;;;;4974858;28;20093;-76
2023/10/27 01:36:51;;;;;;;27.48;14.27;;;12.90;99.90;;;;;;4972276;28;20360;-76
2023/10/27 01:39:17;;;;;;;28.25;14.60;;;12.80;99.90;;;;;;4971160;28;20031;-76
2023/10/27 01:41:43;;;;;;;36.45;15.65;;;12.90;99.90;;;;;;4975587;28;20386;-76
2023/10/27 01:44:08;;;;;;;49.70;17.45;;;13.00;99.90;;;;;;5003921;28;20028;-77
2023/10/27 01:46:34;;;;;;;38.08;16.65;;;12.90;99.90;;;;;;5005446;28;20114;-76
2023/10/27 01:49:00;;;;;;;37.85;15.88;;;13.00;99.90;;;;;;4977705;28;20058;-77
2023/10/27 01:51:25;;;;;;;35.50;16.08;;;12.80;99.90;;;;;;4971415;28;20507;-77
2023/10/27 01:53:51;;;;;;;37.22;16.85;;;12.80;99.90;;;;;;4973741;28;20390;-77
2023/10/27 01:56:17;;;;;;;41.72;17.85;;;12.80;99.90;;;;;;4999915;28;20022;-77
2023/10/27 01:58:44;;;;;;;47.08;18.00;;;12.80;99.90;;;;;;4977264;28;20030;-78
2023/10/27 02:01:12;;;;;;;43.15;18.55;;;12.80;99.90;;;;;;4971159;28;20021;-77
2023/10/27 02:03:38;;;;;;;40.50;16.00;;;12.80;99.90;;;;;;4975943;28;20467;-78
2023/10/27 02:06:04;;;;;;;27.10;14.38;;;12.80;99.90;;;;;;4978937;28;20029;-78
2023/10/27 02:08:30;;;;;;;27.75;14.43;;;12.70;99.90;;;;;;4975381;28;20022;-78
2023/10/27 02:10:56;;;;;;;28.58;14.88;;;12.70;99.90;;;;;;4980738;28;20026;-78
2023/10/27 02:13:22;;;;;;;31.42;13.65;;;12.80;99.90;;;;;;4977055;28;20014;-78
2023/10/27 02:15:48;;;;;;;33.25;13.45;;;12.70;99.90;;;;;;5006951;28;23209;-78
2023/10/27 02:18:14;;;;;;;34.13;15.15;;;12.70;99.90;;;;;;4975917;28;20526;-78
2023/10/27 02:20:39;;;;;;;29.95;14.50;;;12.80;99.90;;;;;;4976200;28;20073;-77
2023/10/27 02:23:05;;;;;;;29.95;13.30;;;12.80;99.90;;;;;;4975692;28;20023;-77
2023/10/27 02:25:31;;;;;;;31.77;13.73;;;12.70;99.90;;;;;;5000917;28;20045;-78
2023/10/27 02:27:56;;;;;;;34.20;14.88;;;12.80;99.90;;;;;;4970652;28;20418;-77
2023/10/27 02:30:22;;;;;;;29.48;13.43;;;12.80;99.90;;;;;;4972477;28;20106;-77
2023/10/27 02:32:48;;;;;;;29.73;12.63;;;12.80;99.90;;;;;;4970468;28;20037;-77
2023/10/27 02:35:14;;;;;;;34.90;15.18;;;12.90;99.90;;;;;;4976081;28;20069;-78
2023/10/27 02:37:39;;;;;;;40.42;15.90;;;12.90;99.90;;;;;;4956736;28;20066;-77
2023/10/27 02:40:06;;;;;;;36.80;13.20;;;12.80;99.90;;;;;;4976740;28;20449;-77
2023/10/27 02:42:31;;;;;;;30.50;12.95;;;12.80;99.90;;;;;;4971516;28;21886;-77
2023/10/27 02:44:57;;;;;;;36.67;13.80;;;12.90;99.90;;;;;;4971408;28;20031;-77
2023/10/27 02:47:23;;;;;;;30.98;14.27;;;12.90;99.90;;;;;;4974248;28;20025;-77
2023/10/27 02:49:48;;;;;;;25.48;12.80;;;12.90;99.90;;;;;;4971457;28;20580;-77
2023/10/27 02:52:14;;;;;;;36.20;14.25;;;12.90;99.90;;;;;;4968562;28;20066;-77
2023/10/27 02:54:40;;;;;;;35.25;13.23;;;12.90;99.90;;;;;;4970285;28;20022;-77
2023/10/27 02:57:05;;;;;;;31.23;13.15;;;12.90;99.90;;;;;;4975163;28;20422;-77
2023/10/27 02:59:31;;;;;;;35.28;12.98;;;12.90;99.90;;;;;;5004117;28;20029;-77
2023/10/27 03:01:58;;;;;;;34.17;12.38;;;12.90;99.90;;;;;;5004305;28;20483;-77
2023/10/27 03:04:26;;;;;;;30.02;12.05;;;12.80;99.90;;;;;;5004291;28;20426;-77
2023/10/27 03:06:51;;;;;;;38.60;13.45;;;12.90;99.90;;;;;;4974517;28;20034;-78
2023/10/27 03:09:17;;;;;;;31.88;14.02;;;12.90;99.90;;;;;;4977336;28;20026;-77
2023/10/27 03:11:43;;;;;;;35.67;13.32;;;12.90;99.90;;;;;;4972123;28;20023;-77
2023/10/27 03:14:08;;;;;;;30.10;12.05;;;12.80;99.90;;;;;;4973926;28;20018;-77
2023/10/27 03:16:35;;;;;;;26.30;12.30;;;12.80;99.90;;;;;;4971387;28;20022;-77
2023/10/27 03:19:00;;;;;;;32.85;12.93;;;12.90;99.90;;;;;;4975943;28;20077;-77
2023/10/27 03:21:26;;;;;;;55.75;13.85;;;13.00;99.90;;;;;;4972991;28;20487;-77
2023/10/27 03:23:52;;;;;;;36.38;13.18;;;12.80;99.90;;;;;;4972282;28;20140;-77
2023/10/27 03:26:17;;;;;;;30.08;11.88;;;12.80;99.90;;;;;;4970301;28;20054;-77
2023/10/27 03:28:43;;;;;;;27.63;11.60;;;12.80;99.90;;;;;;4972364;28;20045;-78
2023/10/27 03:31:12;;;;;;;34.08;11.70;;;12.90;99.90;;;;;;4975455;28;20053;-77
2023/10/27 03:33:38;;;;;;;36.72;13.35;;;12.90;99.90;;;;;;4972139;28;20023;-77
2023/10/27 03:36:04;;;;;;;25.38;11.85;;;12.90;99.90;;;;;;4970687;28;20023;-77
2023/10/27 03:38:30;;;;;;;32.85;12.80;;;12.80;99.90;;;;;;4966949;28;20034;-77
2023/10/27 03:40:56;;;;;;;24.63;12.73;;;12.90;99.90;;;;;;5006042;28;20007;-77
2023/10/27 03:43:21;;;;;;;33.53;14.00;;;12.90;99.90;;;;;;5000129;28;20025;-77
2023/10/27 03:45:47;;;;;;;27.80;12.50;;;12.90;99.90;;;;;;5005975;28;20022;-77
2023/10/27 03:48:14;;;;;;;37.53;13.60;;;12.90;99.90;;;;;;4969134;28;20501;-78
2023/10/27 03:50:39;;;;;;;30.90;14.05;;;12.80;99.90;;;;;;4975133;28;20077;-78
2023/10/27 03:53:05;;;;;;;33.67;15.13;;;13.00;99.90;;;;;;4972577;28;20081;-77
2023/10/27 03:55:31;;;;;;;29.08;12.68;;;12.90;99.90;;;;;;5001162;28;20542;-77
2023/10/27 03:58:15;;;;;;;28.70;12.50;;;13.00;99.90;;;;;;4976547;28;20026;-77
2023/10/27 04:00:41;;;;;;;26.75;13.23;;;13.00;99.90;;;;;;5006403;28;20022;-77
2023/10/27 04:03:06;;;;;;;31.58;13.15;;;13.10;99.90;;;;;;4971824;28;20010;-78
2023/10/27 04:05:32;;;;;;;29.65;12.63;;;13.10;99.90;;;;;;4971273;28;20098;-77
2023/10/27 04:07:58;;;;;;;30.67;11.77;;;13.00;99.90;;;;;;5001539;28;20541;-78
2023/10/27 04:10:23;;;;;;;24.45;13.35;;;13.00;99.90;;;;;;5004254;28;20409;-77
2023/10/27 04:12:49;;;;;;;28.45;12.30;;;13.00;99.90;;;;;;4968960;28;20490;-77
2023/10/27 04:15:15;;;;;;;28.15;12.50;;;12.90;99.90;;;;;;4975977;28;20482;-78
2023/10/27 04:17:41;;;;;;;23.90;11.90;;;13.00;99.90;;;;;;4967784;28;20372;-77
2023/10/27 04:20:07;;;;;;;34.95;12.45;;;13.00;99.90;;;;;;4976745;28;20051;-77
2023/10/27 04:22:33;;;;;;;25.88;11.95;;;12.90;99.90;;;;;;4973039;28;21588;-78
2023/10/27 04:24:59;;;;;;;23.92;12.55;;;12.90;99.90;;;;;;5011588;28;20010;-78
2023/10/27 04:27:25;;;;;;;30.80;12.48;;;13.00;99.90;;;;;;4976400;28;20018;-78
2023/10/27 04:29:51;;;;;;;17.00;10.95;;;12.90;99.90;;;;;;5006421;28;20053;-78
2023/10/27 04:32:18;;;;;;;25.55;12.13;;;13.00;99.90;;;;;;4971491;28;20667;-78
2023/10/27 04:34:46;;;;;;;29.95;12.38;;;13.00;99.90;;;;;;4972625;28;20046;-78
2023/10/27 04:37:12;;;;;;;23.90;12.23;;;13.00;99.90;;;;;;4957136;28;20029;-78
2023/10/27 04:39:37;;;;;;;23.80;10.88;;;13.10;99.90;;;;;;4970976;28;20402;-78
2023/10/27 04:42:04;;;;;;;22.88;11.23;;;13.10;99.90;;;;;;4980469;28;20429;-78
2023/10/27 04:44:30;;;;;;;26.92;12.07;;;13.10;99.90;;;;;;4974007;28;20017;-77
2023/10/27 04:46:56;;;;;;;18.67;10.68;;;13.10;99.90;;;;;;4975790;28;20019;-78
2023/10/27 04:49:21;;;;;;;23.15;11.07;;;13.10;99.90;;;;;;4975133;28;20334;-78
2023/10/27 04:51:47;;;;;;;26.33;11.55;;;13.10;99.90;;;;;;4976825;28;20410;-78
2023/10/27 04:54:13;;;;;;;21.48;10.82;;;13.20;99.90;;;;;;5001061;28;20018;-78
2023/10/27 04:56:38;;;;;;;22.42;10.48;;;13.20;99.90;;;;;;4993356;28;20026;-78
2023/10/27 04:59:04;;;;;;;20.92;11.57;;;13.20;99.90;;;;;;4974040;28;20026;-78
2023/10/27 05:01:30;;;;;;;26.48;12.40;;;13.20;99.90;;;;;;4973031;28;20058;-78
2023/10/27 05:03:56;;;;;;;22.85;10.55;;;13.20;99.90;;;;;;4978955;28;20022;-79
2023/10/27 05:06:21;;;;;;;26.25;10.93;;;13.20;99.90;;;;;;4979181;28;20018;-78
2023/10/27 05:08:47;;;;;;;20.42;10.68;;;13.00;99.90;;;;;;4986563;28;20018;-78
2023/10/27 05:11:13;;;;;;;20.92;10.50;;;13.10;99.90;;;;;;4975368;28;20022;-78
2023/10/27 05:13:38;;;;;;;24.92;11.63;;;13.10;99.90;;;;;;4976478;28;20030;-78
2023/10/27 05:16:04;;;;;;;19.60;11.13;;;13.10;99.90;;;;;;4970384;28;20102;-78
2023/10/27 05:18:31;;;;;;;48.13;13.70;;;13.00;99.90;;;;;;4973502;28;20034;-77
2023/10/27 05:20:56;;;;;;;20.58;10.57;;;12.90;99.90;;;;;;5004316;28;20098;-78
2023/10/27 05:23:22;;;;;;;19.83;10.38;;;12.90;99.90;;;;;;4967635;28;20188;-78
2023/10/27 05:25:50;;;;;;;19.45;11.40;;;13.00;99.90;;;;;;5007900;28;20318;-78
2023/10/27 05:28:16;;;;;;;19.05;11.25;;;13.10;99.90;;;;;;4970319;28;21035;-77
2023/10/27 05:30:46;;;;;;;19.67;10.80;;;13.00;99.90;;;;;;4970283;28;20023;-78
2023/10/27 05:33:11;;;;;;;23.13;11.63;;;13.00;99.90;;;;;;4972556;28;20014;-77
2023/10/27 05:35:37;;;;;;;20.38;11.38;;;12.80;99.90;;;;;;4978327;28;20081;-78
2023/10/27 05:38:02;;;;;;;22.15;11.98;;;12.80;99.90;;;;;;4973903;28;20031;-77
2023/10/27 05:40:31;;;;;;;21.00;11.82;;;12.90;99.90;;;;;;4973820;28;20418;-78
2023/10/27 05:42:57;;;;;;;24.10;13.82;;;13.00;99.90;;;;;;4974426;28;20010;-77
2023/10/27 05:45:23;;;;;;;22.65;13.20;;;12.90;99.90;;;;;;4989068;28;20947;-77
2023/10/27 05:47:49;;;;;;;27.50;13.35;;;13.00;99.90;;;;;;4972387;28;20714;-77
2023/10/27 05:50:14;;;;;;;34.67;14.38;;;13.10;99.90;;;;;;4969055;28;20070;-77
2023/10/27 05:52:40;;;;;;;24.27;12.55;;;13.00;99.90;;;;;;4976287;28;20022;-78
2023/10/27 05:55:06;;;;;;;21.20;11.60;;;13.00;99.90;;;;;;4971305;28;20378;-77
2023/10/27 05:57:32;;;;;;;18.23;12.40;;;13.10;99.90;;;;;;4973165;28;20031;-77
2023/10/27 05:59:58;;;;;;;22.08;12.68;;;13.10;99.90;;;;;;4977751;28;20104;-78
2023/10/27 06:02:24;;;;;;;14.45;9.90;;;13.20;99.90;;;;;;4974200;28;20363;-77
2023/10/27 06:04:50;;;;;;;15.65;11.00;;;13.20;99.90;;;;;;4972990;28;20019;-78
2023/10/27 06:07:17;;;;;;;16.20;11.23;;;13.20;99.90;;;;;;4968842;28;20093;-78
2023/10/27 06:09:43;;;;;;;20.30;11.75;;;13.30;99.90;;;;;;4976259;28;20036;-78
2023/10/27 06:12:09;;;;;;;19.95;12.07;;;13.20;99.90;;;;;;4971731;28;20057;-78
2023/10/27 06:14:35;;;;;;;22.45;12.05;;;13.30;99.90;;;;;;4972804;28;20050;-78
2023/10/27 06:17:01;;;;;;;36.30;13.93;;;13.30;99.90;;;;;;4977102;28;20022;-78
2023/10/27 06:19:27;;;;;;;19.83;11.73;;;13.20;99.90;;;;;;4970036;28;20035;-78
2023/10/27 06:21:59;;;;;;;18.75;11.48;;;13.10;99.90;;;;;;5001348;28;20496;-78
2023/10/27 06:24:25;;;;;;;;;;;13.10;99.90;;;;;;4993818;28;20026;-77
2023/10/27 06:26:50;;;;;;;21.95;13.10;;;13.20;99.90;;;;;;4973248;28;19917;-78
2023/10/27 06:29:17;;;;;;;19.27;12.23;;;13.20;99.90;;;;;;4978623;28;20094;-78
2023/10/27 06:31:43;;;;;;;18.02;12.88;;;13.30;99.90;;;;;;4971400;28;20597;-78
2023/10/27 06:34:09;;;;;;;28.90;14.60;;;13.20;99.90;;;;;;5004152;28;20100;-78
2023/10/27 06:36:35;;;;;;;16.67;10.95;;;13.20;99.90;;;;;;4975857;28;20062;-77
2023/10/27 06:39:01;;;;;;;16.65;12.05;;;13.30;99.90;;;;;;4970476;28;20026;-78
2023/10/27 06:41:27;;;;;;;23.27;14.18;;;13.30;99.90;;;;;;4977075;28;20015;-77
2023/10/27 06:43:52;;;;;;;20.45;12.18;;;13.30;99.90;;;;;;4972813;28;20073;-77
2023/10/27 06:46:18;;;;;;;18.17;11.50;;;13.30;99.90;;;;;;4972761;28;20015;-77
2023/10/27 06:48:44;;;;;;;22.33;12.40;;;13.30;99.90;;;;;;4978254;28;20121;-77
2023/10/27 06:51:09;;;;;;;27.80;14.13;;;13.30;99.90;;;;;;4974284;28;20022;-77
2023/10/27 06:53:35;;;;;;;22.92;13.75;;;13.20;99.90;;;;;;4973305;28;20019;-78
2023/10/27 06:56:01;;;;;;;17.77;12.65;;;13.20;99.90;;;;;;4972715;28;20029;-77
2023/10/27 06:58:26;;;;;;;19.63;12.18;;;13.20;99.90;;;;;;4969652;28;20033;-77
2023/10/27 07:00:52;;;;;;;23.63;13.75;;;13.30;99.90;;;;;;5003647;28;20031;-78
2023/10/27 07:03:18;;;;;;;24.98;14.90;;;13.20;99.90;;;;;;4973078;28;20015;-77
2023/10/27 07:05:44;;;;;;;20.00;12.85;;;13.30;99.90;;;;;;4974760;28;20015;-77
2023/10/27 07:08:10;;;;;;;21.00;12.48;;;13.20;99.90;;;;;;4970497;28;20105;-78
2023/10/27 07:11:01;;;;;;;23.35;12.70;;;13.20;99.90;;;;;;4975108;28;20082;-77
2023/10/27 07:13:28;;;;;;;24.88;13.32;;;13.30;99.90;;;;;;4975522;28;20027;-78
2023/10/27 07:15:54;;;;;;;22.20;13.50;;;13.30;99.90;;;;;;5002451;28;20014;-78
2023/10/27 07:18:20;;;;;;;19.65;12.25;;;13.30;99.90;;;;;;4977834;28;20430;-76
2023/10/27 07:20:47;;;;;;;20.27;12.85;;;13.20;99.90;;;;;;4978969;28;20034;-77
2023/10/27 07:23:13;;;;;;;18.88;11.88;;;13.20;99.90;;;;;;4976162;28;20022;-76
2023/10/27 07:25:39;;;;;;;24.40;12.50;;;13.20;99.90;;;;;;5002647;28;20022;-77
2023/10/27 07:28:05;;;;;;;18.17;11.40;;;13.30;99.90;;;;;;4973195;28;20025;-77
2023/10/27 07:30:31;;;;;;;17.95;13.10;;;13.30;99.90;;;;;;5006302;28;20027;-77
2023/10/27 07:32:57;;;;;;;17.92;12.02;;;13.30;99.90;;;;;;4977554;28;20133;-77
2023/10/27 07:35:24;;;;;;;17.33;11.85;;;13.30;99.90;;;;;;4976257;28;20029;-76
2023/10/27 07:37:50;;;;;;;22.15;13.30;;;13.30;99.90;;;;;;4978769;28;20039;-76
2023/10/27 07:40:16;;;;;;;19.83;13.05;;;13.30;99.90;;;;;;4972959;28;20842;-76
2023/10/27 07:42:42;;;;;;;22.73;14.85;;;13.30;99.90;;;;;;4972642;28;20053;-76
2023/10/27 07:45:08;;;;;;;25.42;16.58;;;13.30;99.90;;;;;;4974737;28;20018;-76
2023/10/27 07:47:34;;;;;;;25.23;15.73;;;13.30;99.90;;;;;;4970927;28;20050;-77
2023/10/27 07:50:00;;;;;;;29.42;15.50;;;13.30;99.90;;;;;;4967954;28;20102;-77
2023/10/27 07:52:27;;;;;;;30.02;16.25;;;13.30;99.90;;;;;;4972414;28;20023;-76
2023/10/27 07:54:54;;;;;;;29.38;16.50;;;13.30;99.90;;;;;;4997175;28;20091;-77
2023/10/27 07:57:21;;;;;;;29.40;17.23;;;13.30;99.90;;;;;;4974019;28;20034;-76
2023/10/27 07:59:47;;;;;;;27.73;16.02;;;13.30;99.90;;;;;;4979530;28;20473;-76
2023/10/27 08:02:13;;;;;;;33.40;17.38;;;13.30;99.90;;;;;;4971010;28;20102;-76
2023/10/27 08:04:38;;;;;;;32.67;16.08;;;13.30;99.90;;;;;;5007394;28;20029;-76
2023/10/27 08:07:05;;;;;;;30.27;17.23;;;13.30;99.90;;;;;;5008011;28;20379;-76
2023/10/27 08:09:31;;;;;;;32.38;16.55;;;13.30;99.90;;;;;;4980577;28;20503;-77
2023/10/27 08:11:57;;;;;;;29.23;16.08;;;13.30;99.90;;;;;;4980217;28;20027;-76
2023/10/27 08:14:23;;;;;;;33.03;16.73;;;13.40;99.90;;;;;;4980367;28;20093;-76
2023/10/27 08:16:49;;;;;;;35.75;17.75;;;13.40;99.90;;;;;;4977965;28;20110;-76
2023/10/27 08:19:15;;;;;;;32.53;17.38;;;13.40;99.90;;;;;;4975900;28;20502;-77
2023/10/27 08:21:41;;;;;;;33.08;16.77;;;13.40;99.90;;;;;;4975413;28;20018;-76
2023/10/27 08:24:08;;;;;;;36.35;18.33;;;13.50;99.90;;;;;;4975769;28;20015;-77
2023/10/27 08:26:33;;;;;;;38.03;19.42;;;13.50;99.90;;;;;;5006096;28;20281;-76
2023/10/27 08:28:59;;;;;;;35.95;18.05;;;13.50;99.90;;;;;;4974224;28;20474;-76
2023/10/27 08:35:25;;;;;;;36.35;18.63;;;13.60;99.90;;;;;;4977625;28;20084;-77
2023/10/27 08:37:52;;;;;;;41.10;20.27;;;13.60;99.90;;;;;;4976238;28;20564;-77
2023/10/27 08:40:17;;;;;;;41.55;20.15;;;13.70;99.90;;;;;;4960440;28;20019;-77
2023/10/27 08:42:45;;;;;;;41.83;20.02;;;13.70;99.90;;;;;;4956754;28;20049;-77
2023/10/27 08:45:11;;;;;;;33.63;19.13;;;13.70;99.90;;;;;;4958666;28;20423;-77
2023/10/27 08:47:39;;;;;;;36.58;20.60;;;13.70;99.90;;;;;;4990681;28;20026;-78
2023/10/27 08:50:05;;;;;;;46.78;22.27;;;13.70;99.90;;;;;;4957584;28;20020;-77
2023/10/27 08:52:34;;;;;;;44.67;22.70;;;13.80;99.90;;;;;;4958514;28;20020;-78
2023/10/27 08:55:07;;;;;;;36.75;19.70;;;13.80;99.90;;;;;;4962165;28;20019;-77
2023/10/27 08:57:34;;;;;;;38.85;21.98;;;13.80;99.90;;;;;;4959848;28;20097;-77
2023/10/27 08:59:59;;;;;;;35.03;19.98;;;13.80;99.90;;;;;;4968951;28;20027;-77
2023/10/27 09:02:30;;;;;;;35.10;20.08;;;13.80;99.90;;;;;;4960628;28;20025;-77
2023/10/27 09:05:04;;;;;;;34.35;19.42;;;13.80;99.90;;;;;;4963004;28;20374;-77
2023/10/27 09:07:33;;;;;;;34.67;18.50;;;13.80;99.90;;;;;;4991202;28;20078;-77
2023/10/27 09:10:07;;;;;;;26.20;16.40;;;13.80;99.90;;;;;;4974764;28;20034;-77
2023/10/27 09:12:36;;;;;;;31.58;17.75;;;13.90;99.90;;;;;;4962931;28;20051;-77
2023/10/27 09:15:05;;;;;;;28.45;16.52;;;13.90;99.90;;;;;;4993453;28;20066;-77
2023/10/27 09:17:48;;;;;;;28.27;17.35;;;13.90;99.90;;;;;;4991691;28;20050;-77
2023/10/27 09:20:14;;;;;;;36.05;18.10;;;13.90;99.90;;;;;;4965367;28;20481;-77
2023/10/27 09:22:56;;;;;;;28.88;17.27;;;14.00;99.90;;;;;;4956458;28;20114;-77
2023/10/27 09:25:29;;;;;;;29.58;16.08;;;13.90;99.90;;;;;;4962471;28;20100;-77
2023/10/27 09:27:59;;;;;;;28.08;14.82;;;14.00;99.90;;;;;;4963261;28;20121;-76
2023/10/27 09:30:26;;;;;;;30.48;15.48;;;14.00;99.90;;;;;;4960203;28;20091;-76
2023/10/27 09:32:52;;;;;;;27.15;15.70;;;13.90;99.90;;;;;;4987956;28;20030;-76
2023/10/27 09:35:18;;;;;;;31.25;16.25;;;13.90;99.90;;;;;;4957840;28;20375;-77
2023/10/27 09:37:48;;;;;;;25.63;15.93;;;14.00;99.90;;;;;;4960917;28;20428;-77
2023/10/27 09:40:15;;;;;;;28.40;16.50;;;13.90;99.90;;;;;;4961525;28;20426;-77
2023/10/27 09:42:41;;;;;;;30.98;16.70;;;13.80;99.90;;;;;;4953665;28;20068;-77
2023/10/27 09:45:12;;;;;;;39.28;18.05;;;13.80;99.90;;;;;;4959700;28;20573;-78
2023/10/27 09:47:41;;;;;;;32.63;16.10;;;13.90;99.90;;;;;;4974077;28;20018;-78
2023/10/27 09:50:12;;;;;;;41.83;20.90;;;13.90;99.90;;;;;;4964311;28;20077;-78
2023/10/27 09:52:41;;;;;;;34.40;17.92;;;13.90;99.90;;;;;;4968044;28;20073;-77
2023/10/27 09:55:08;;;;;;;35.83;17.60;;;13.70;99.90;;;;;;4968877;28;20565;-77
2023/10/27 09:57:35;;;;;;;37.25;18.30;;;13.70;99.90;;;;;;4990080;28;20027;-76
2023/10/27 10:00:03;;;;;;;37.25;18.23;;;13.70;99.90;;;;;;4997029;28;20545;-77
2023/10/27 10:02:30;;;;;;;32.83;16.60;;;13.80;99.90;;;;;;4966137;28;20010;-77
2023/10/27 10:04:57;;;;;;;30.10;16.83;;;13.80;99.90;;;;;;4963209;28;20030;-76
2023/10/27 10:07:32;;;;;;;33.35;17.58;;;13.80;99.90;;;;;;4991726;28;20069;-76
2023/10/27 10:10:17;;;;;;;32.97;15.95;;;13.90;99.90;;;;;;4963627;28;20082;-76
2023/10/27 10:12:59;;;;;;;33.28;15.20;;;13.90;99.90;;;;;;4961793;28;20394;-76
2023/10/27 10:15:47;;;;;;;29.58;16.08;;;14.00;99.90;;;;;;4988579;28;20574;-77
2023/10/27 10:18:25;;;;;;;31.92;16.45;;;14.10;99.90;;;;;;4955398;28;20058;-77
2023/10/27 10:20:52;;;;;;;29.58;15.88;;;14.20;99.90;;;;;;4960306;28;20105;-76
2023/10/27 10:23:19;;;;;;;22.00;14.38;;;14.20;99.90;;;;;;4957060;28;20129;-76
2023/10/27 10:25:56;;;;;;;33.28;17.10;;;14.20;99.90;;;;;;4988639;28;20105;-77
2023/10/27 10:28:30;;;;;;;28.70;14.73;;;14.20;99.90;;;;;;4950346;28;20054;-76
2023/10/27 10:31:11;;;;;;;23.98;14.13;;;14.30;99.90;;;;;;4956192;28;20085;-76
2023/10/27 10:33:40;;;;;;;19.42;12.77;;;14.30;99.90;;;;;;4957792;28;20026;-76
2023/10/27 10:36:18;;;;;;;22.50;13.20;;;14.30;99.90;;;;;;4959584;28;20035;-76
2023/10/27 10:38:50;;;;;;;29.33;13.50;;;14.30;99.90;;;;;;4985936;28;20402;-76
2023/10/27 10:41:17;;;;;;;22.92;13.35;;;14.40;99.90;;;;;;4989748;28;20023;-76
2023/10/27 10:43:43;;;;;;;29.23;14.18;;;14.40;99.90;;;;;;4958453;28;20007;-76
2023/10/27 10:46:11;;;;;;;31.33;13.88;;;14.40;99.90;;;;;;4960003;28;20057;-76
2023/10/27 10:48:45;;;;;;;19.70;11.55;;;14.30;99.90;;;;;;4957731;28;20019;-76
2023/10/27 10:51:16;;;;;;;25.45;11.65;;;14.40;99.90;;;;;;4963996;28;20027;-76
2023/10/27 10:53:55;;;;;;;22.70;11.27;;;14.40;99.90;;;;;;4961377;28;20497;-76
2023/10/27 10:56:21;;;;;;;21.02;11.10;;;14.40;99.90;;;;;;4958696;28;22106;-76
2023/10/27 10:58:47;;;;;;;26.02;12.60;;;14.40;99.90;;;;;;4970872;28;20171;-76
2023/10/27 11:01:19;;;;;;;24.17;12.77;;;14.40;99.90;;;;;;4976255;28;20051;-76
2023/10/27 11:03:52;;;;;;;30.30;13.70;;;14.40;99.90;;;;;;4958742;28;20028;-76
2023/10/27 11:06:26;;;;;;;25.20;12.52;;;14.50;99.90;;;;;;4958596;28;20618;-76
2023/10/27 11:08:52;;;;;;;21.67;11.60;;;14.50;99.90;;;;;;4955117;28;20026;-77
2023/10/27 11:11:19;;;;;;;23.48;12.23;;;14.50;99.90;;;;;;4956040;28;20024;-78
2023/10/27 11:13:47;;;;;;;25.35;12.30;;;14.40;99.90;;;;;;4986727;28;20434;-78
2023/10/27 11:16:21;;;;;;;28.42;11.73;;;14.40;99.90;;;;;;4951124;28;20026;-77
2023/10/27 11:18:49;;;;;;;27.42;12.80;;;14.40;99.90;;;;;;4957694;28;20015;-77
2023/10/27 11:21:16;;;;;;;24.25;12.02;;;14.50;99.90;;;;;;4957321;28;20459;-77
2023/10/27 11:23:42;;;;;;;25.65;11.13;;;14.40;99.90;;;;;;4987688;28;20029;-77
2023/10/27 11:26:08;;;;;;;23.38;9.77;;;14.40;99.90;;;;;;4949963;28;22016;-77
2023/10/27 11:28:42;;;;;;;23.98;10.68;;;14.40;99.90;;;;;;4958044;28;20042;-77
2023/10/27 11:31:29;;;;;;;22.52;9.85;;;14.40;99.90;;;;;;4957374;28;20019;-78
2023/10/27 11:34:00;;;;;;;21.45;11.52;;;14.40;99.90;;;;;;4958137;28;20035;-76
2023/10/27 11:36:38;;;;;;;18.85;11.32;;;14.40;99.90;;;;;;4958786;28;20031;-76
2023/10/27 11:39:21;;;;;;;25.60;12.02;;;14.40;99.90;;;;;;4959565;28;20486;-75
2023/10/27 11:41:54;;;;;;;20.50;11.70;;;14.40;99.90;;;;;;4960882;28;20018;-76
2023/10/27 11:44:21;;;;;;;20.85;11.82;;;14.50;99.90;;;;;;4960831;28;20019;-76
2023/10/27 11:46:47;;;;;;;22.45;12.07;;;14.50;99.90;;;;;;4963487;28;20015;-76
2023/10/27 11:49:13;;;;;;;24.70;12.55;;;14.50;99.90;;;;;;4961345;28;20023;-76
2023/10/27 11:51:41;;;;;;;21.70;11.13;;;14.40;99.90;;;;;;4956940;28;20459;-77
2023/10/27 11:54:07;;;;;;;20.58;10.27;;;14.40;99.90;;;;;;4959836;28;20483;-76
2023/10/27 11:56:33;;;;;;;19.05;10.20;;;14.50;99.90;;;;;;4953958;28;20027;-76
2023/10/27 11:58:58;;;;;;;23.40;10.45;;;14.50;99.90;;;;;;4956485;28;20114;-76
2023/10/27 12:01:24;;;;;;;20.98;9.23;;;14.50;99.90;;;;;;4963525;28;20042;-76
2023/10/27 12:03:50;;;;;;;22.15;9.43;;;14.60;99.90;;;;;;4956799;28;20416;-76
2023/10/27 12:06:15;;;;;;;16.45;10.07;;;14.60;99.90;;;;;;4958247;28;23155;-76
2023/10/27 12:08:41;;;;;;;21.02;8.98;;;14.60;99.90;;;;;;4962067;28;20113;-76
2023/10/27 12:11:07;;;;;;;13.75;8.60;;;14.60;99.90;;;;;;4961003;28;20027;-77
2023/10/27 12:13:33;;;;;;;16.65;8.10;;;14.50;99.90;;;;;;4963006;28;20054;-76
2023/10/27 12:15:58;;;;;;;16.13;8.60;;;14.60;99.90;;;;;;4959690;28;20051;-76
2023/10/27 12:18:24;;;;;;;14.60;8.02;;;14.60;99.90;;;;;;4959699;28;20364;-76
2023/10/27 12:20:50;;;;;;;24.20;8.60;;;14.60;99.90;;;;;;4962111;28;20490;-76
2023/10/27 12:23:18;;;;;;;16.38;9.13;;;14.70;99.90;;;;;;4963815;28;20030;-76
2023/10/27 12:25:43;;;;;;;16.13;7.30;;;14.70;99.90;;;;;;4955108;28;20705;-76
2023/10/27 12:28:09;;;;;;;17.98;7.50;;;14.70;99.90;;;;;;4974872;28;20102;-76
2023/10/27 12:30:38;;;;;;;14.02;6.57;;;14.70;99.90;;;;;;4959101;28;20497;-76
2023/10/27 12:33:05;;;;;;;13.95;6.90;;;14.70;99.90;;;;;;4959578;28;20030;-76